Time;durP1;ratioP1;P1;durP2;ratioP2;P2;SDS_P1;SDS_P2;PMS_P1;PMS_P2;Temp;Humidity;BMP_temperature;BMP_pressure;BME280_temperature;BME280_humidity;BME280_pressure;Samples;Min_cycle;Max_cycle;Signal;HPM_P1;HPM_P2
2023/12/22 00:00:07;;;;;;;16.73;9.30;;;;;;;7.80;100.00;97830.44;5090620;28;20109;-41
2023/12/22 00:02:36;;;;;;;13.68;7.20;;;;;;;7.82;100.00;97833.84;5096177;28;20075;-41
2023/12/22 00:05:05;;;;;;;13.00;6.88;;;;;;;7.95;100.00;97844.22;5108777;28;20044;-41
2023/12/22 00:07:32;;;;;;;9.45;5.95;;;;;;;7.88;100.00;97820.00;5091513;28;20403;-43
2023/12/22 00:10:00;;;;;;;9.80;5.85;;;;;;;7.90;100.00;97810.09;5091308;28;20136;-42
2023/12/22 00:12:29;;;;;;;11.60;6.05;;;;;;;7.88;100.00;97822.66;5094956;28;20140;-42
2023/12/22 00:14:59;;;;;;;10.45;5.75;;;;;;;7.94;100.00;97823.94;5099448;28;20458;-41
2023/12/22 00:17:27;;;;;;;10.35;5.70;;;;;;;7.93;100.00;97840.84;5111365;28;20051;-41
2023/12/22 00:19:58;;;;;;;9.75;5.97;;;;;;;8.01;100.00;97855.13;5111302;28;20124;-42
2023/12/22 00:22:27;;;;;;;9.05;5.75;;;;;;;7.93;100.00;97859.44;5111577;28;20135;-41
2023/12/22 00:24:56;;;;;;;9.48;5.53;;;;;;;8.06;100.00;97851.22;5110811;28;20503;-41
2023/12/22 00:27:24;;;;;;;10.25;5.55;;;;;;;8.07;100.00;97868.84;5111636;28;20055;-41
2023/12/22 00:29:53;;;;;;;11.25;5.63;;;;;;;8.05;100.00;97871.63;5111584;28;20039;-40
2023/12/22 00:32:22;;;;;;;9.32;5.65;;;;;;;7.99;100.00;97893.38;5091862;28;20044;-41
2023/12/22 00:34:51;;;;;;;10.90;5.65;;;;;;;7.99;100.00;97893.38;5091306;28;20048;-41
2023/12/22 00:37:19;;;;;;;9.95;5.97;;;;;;;8.04;100.00;97901.81;5107558;28;20036;-42
2023/12/22 00:39:47;;;;;;;10.18;6.35;;;;;;;8.06;100.00;97921.09;5098119;28;20408;-42
2023/12/22 00:42:16;;;;;;;10.20;6.57;;;;;;;8.00;100.00;97924.28;5111045;28;20066;-44
2023/12/22 00:44:44;;;;;;;10.63;6.88;;;;;;;8.07;100.00;97921.94;5111150;28;20048;-43
2023/12/22 00:47:13;;;;;;;11.77;6.90;;;;;;;7.99;100.00;97918.13;5111371;28;20050;-42
2023/12/22 00:49:42;;;;;;;12.80;6.45;;;;;;;8.12;100.00;97925.03;5095556;28;20041;-42
2023/12/22 00:52:11;;;;;;;14.45;7.78;;;;;;;7.89;100.00;97916.41;5090829;28;20426;-42
2023/12/22 00:54:39;;;;;;;13.60;8.60;;;;;;;7.86;100.00;97919.31;5109554;28;20136;-41
2023/12/22 00:57:07;;;;;;;13.02;8.20;;;;;;;7.90;100.00;97937.50;5111266;28;20048;-41
2023/12/22 00:59:36;;;;;;;13.10;7.75;;;;;;;7.95;100.00;97951.22;5111367;28;20044;-42
2023/12/22 01:02:04;;;;;;;15.15;8.40;;;;;;;7.98;100.00;97939.50;5111168;28;20043;-41
2023/12/22 01:04:33;;;;;;;15.20;8.55;;;;;;;7.85;100.00;97907.88;5111086;28;20534;-42
2023/12/22 01:07:03;;;;;;;13.55;7.95;;;;;;;7.84;100.00;97890.25;5103896;28;20075;-41
2023/12/22 01:09:31;;;;;;;12.20;7.68;;;;;;;7.75;100.00;97891.91;5111220;28;20411;-42
2023/12/22 01:12:02;;;;;;;11.77;7.30;;;;;;;7.77;100.00;97867.88;5112794;28;20048;-43
2023/12/22 01:14:30;;;;;;;10.65;6.40;;;;;;;7.81;100.00;97884.38;5108819;28;20068;-42
2023/12/22 01:16:59;;;;;;;10.45;5.95;;;;;;;7.81;100.00;97906.44;5098195;28;20586;-47
2023/12/22 01:19:27;;;;;;;8.93;5.30;;;;;;;7.85;100.00;97913.19;5102663;28;20044;-42
2023/12/22 01:21:55;;;;;;;9.57;5.30;;;;;;;7.80;100.00;97911.88;5094141;28;20060;-42
2023/12/22 01:24:25;;;;;;;9.35;5.35;;;;;;;7.75;100.00;97917.59;5094460;28;20127;-41
2023/12/22 01:26:53;;;;;;;9.60;5.18;;;;;;;7.82;100.00;97921.41;5094192;28;20048;-41
2023/12/22 01:29:21;;;;;;;7.85;4.38;;;;;;;7.77;100.00;97936.88;5113592;28;20084;-42
2023/12/22 01:31:50;;;;;;;9.27;5.18;;;;;;;7.81;100.00;97938.28;5113316;28;20055;-41
2023/12/22 01:34:18;;;;;;;8.73;5.40;;;;;;;7.79;100.00;97942.88;5093984;28;20135;-41
2023/12/22 01:36:47;;;;;;;7.30;4.03;;;;;;;7.73;100.00;97944.25;5098748;28;20116;-44
2023/12/22 01:39:15;;;;;;;8.50;4.72;;;;;;;7.82;100.00;97932.03;5097235;28;20574;-43
2023/12/22 01:41:45;;;;;;;7.55;4.45;;;;;;;7.90;100.00;97926.03;5113164;28;20048;-43
2023/12/22 01:44:13;;;;;;;9.82;4.35;;;;;;;7.91;100.00;97931.25;5099675;28;20122;-43
2023/12/22 01:46:42;;;;;;;8.35;4.28;;;;;;;7.90;100.00;97924.22;5113912;28;20047;-42
2023/12/22 01:49:12;;;;;;;8.75;4.78;;;;;;;7.91;100.00;97915.31;5113787;28;20128;-41
2023/12/22 01:51:42;;;;;;;7.47;4.60;;;;;;;7.89;100.00;97930.50;5114173;28;20054;-41
2023/12/22 01:54:11;;;;;;;7.45;4.22;;;;;;;7.78;100.00;97921.78;5113585;28;20047;-41
2023/12/22 01:56:40;;;;;;;5.90;3.60;;;;;;;7.71;100.00;97924.97;5114168;28;20086;-44
2023/12/22 01:59:11;;;;;;;7.40;2.90;;;;;;;7.65;100.00;97916.69;5114016;28;20481;-40
2023/12/22 02:01:39;;;;;;;6.35;2.75;;;;;;;7.76;100.00;97900.69;5106763;28;20060;-42
2023/12/22 02:04:08;;;;;;;4.65;2.60;;;;;;;7.70;100.00;97888.78;5093302;28;20062;-43
2023/12/22 02:06:36;;;;;;;4.00;2.15;;;;;;;7.77;100.00;97877.66;5093576;28;20044;-41
2023/12/22 02:09:05;;;;;;;3.72;1.98;;;;;;;7.81;100.00;97836.59;5093024;28;20109;-42
2023/12/22 02:11:33;;;;;;;4.00;2.03;;;;;;;7.81;100.00;97840.09;5106431;28;20036;-41
2023/12/22 02:14:02;;;;;;;5.88;2.00;;;;;;;7.86;100.00;97856.47;5093732;28;20050;-42
2023/12/22 02:16:43;;;;;;;3.95;1.80;;;;;;;7.95;100.00;97853.00;5113307;28;20082;-40
2023/12/22 02:19:28;;;;;;;3.15;1.67;;;;;;;7.95;100.00;97842.38;5105306;28;20094;-41
2023/12/22 02:22:06;;;;;;;3.75;1.80;;;;;;;7.87;100.00;97836.91;5092881;28;20044;-52
2023/12/22 02:24:39;;;;;;;3.75;1.48;;;;;;;7.92;100.00;97826.75;5093888;28;20168;-42
2023/12/22 02:27:22;;;;;;;3.00;1.33;;;;;;;7.92;100.00;97849.78;5093048;28;20509;-42
2023/12/22 02:29:55;;;;;;;2.15;1.10;;;;;;;7.88;100.00;97832.44;5096650;28;20102;-45
2023/12/22 02:32:28;;;;;;;2.42;1.10;;;;;;;7.82;100.00;97833.84;5095500;28;20475;-42
2023/12/22 02:34:57;;;;;;;1.20;0.60;;;;;;;7.73;100.00;97840.78;5102710;28;20035;-43
2023/12/22 02:37:28;;;;;;;1.63;0.95;;;;;;;7.82;100.00;97849.75;5116260;28;20075;-43
2023/12/22 02:39:59;;;;;;;2.38;1.10;;;;;;;7.70;100.00;97859.59;5115899;28;20481;-42
2023/12/22 02:42:30;;;;;;;1.92;1.10;;;;;;;7.71;100.00;97884.31;5116377;28;20051;-43
2023/12/22 02:44:58;;;;;;;2.08;0.93;;;;;;;7.67;100.00;97896.19;5116161;28;20067;-43
2023/12/22 02:47:28;;;;;;;2.00;1.08;;;;;;;7.60;100.00;97897.66;5098240;28;20063;-42
2023/12/22 02:49:57;;;;;;;1.58;0.90;;;;;;;7.56;100.00;97893.59;5115951;28;20047;-43
2023/12/22 02:52:25;;;;;;;1.75;0.95;;;;;;;7.65;100.00;97898.13;5114871;28;20047;-42
2023/12/22 02:54:54;;;;;;;3.50;1.30;;;;;;;7.70;100.00;97925.09;5115633;28;20067;-43
2023/12/22 02:57:23;;;;;;;3.15;1.30;;;;;;;7.65;100.00;97909.56;5116216;27;20048;-42
2023/12/22 02:59:52;;;;;;;3.05;1.15;;;;;;;7.62;100.00;97866.53;5115056;28;20047;-41
2023/12/22 03:02:21;;;;;;;2.60;1.13;;;;;;;7.62;100.00;97858.56;5115032;28;20082;-41
2023/12/22 03:04:49;;;;;;;2.65;1.20;;;;;;;7.66;100.00;97868.81;5115348;28;20097;-41
2023/12/22 03:07:18;;;;;;;3.88;1.50;;;;;;;7.66;100.00;97873.28;5112478;28;20048;-42
2023/12/22 03:09:46;;;;;;;3.03;1.48;;;;;;;7.58;100.00;97879.22;5095214;28;20053;-42
2023/12/22 03:12:14;;;;;;;3.13;1.50;;;;;;;7.62;100.00;97879.78;5102459;28;20043;-41
2023/12/22 03:14:44;;;;;;;2.78;1.55;;;;;;;7.62;100.00;97874.50;5114749;28;20146;-42
2023/12/22 03:17:12;;;;;;;3.67;1.50;;;;;;;7.57;100.00;97874.06;5115628;28;20105;-41
2023/12/22 03:19:41;;;;;;;5.30;1.80;;;;;;;7.61;100.00;97886.06;5116792;28;20485;-43
2023/12/22 03:22:09;;;;;;;2.78;1.40;;;;;;;7.57;100.00;97879.38;5116281;28;20126;-44
2023/12/22 03:24:38;;;;;;;2.10;1.20;;;;;;;7.61;100.00;97888.72;5116356;28;20274;-43
2023/12/22 03:27:07;;;;;;;2.72;1.40;;;;;;;7.51;100.00;97893.97;5099066;28;20482;-42
2023/12/22 03:29:35;;;;;;;3.30;1.40;;;;;;;7.55;100.00;97921.94;5114382;28;20054;-42
2023/12/22 03:32:05;;;;;;;5.57;1.77;;;;;;;7.56;100.00;97906.88;5115227;28;20039;-41
2023/12/22 03:34:34;;;;;;;3.75;1.60;;;;;;;7.50;100.00;97921.47;5093695;28;20202;-42
2023/12/22 03:37:02;;;;;;;1.98;1.17;;;;;;;7.40;100.00;97928.53;5091008;28;20519;-41
2023/12/22 03:39:31;;;;;;;2.55;1.10;;;;;;;7.28;100.00;97934.88;5097868;28;20040;-42
2023/12/22 03:41:59;;;;;;;3.28;0.88;;;;;;;7.20;100.00;97954.06;5093506;28;20072;-42
2023/12/22 03:44:28;;;;;;;2.78;0.88;;;;;;;7.26;100.00;97942.97;5111724;28;20047;-43
2023/12/22 03:46:56;;;;;;;2.45;0.93;;;;;;;7.21;100.00;97928.38;5111761;28;20164;-41
2023/12/22 03:49:26;;;;;;;4.10;0.98;;;;;;;7.14;100.00;97944.81;5109993;28;20047;-43
2023/12/22 03:51:54;;;;;;;2.47;0.80;;;;;;;7.21;100.00;97945.13;5111148;28;20050;-41
2023/12/22 03:54:23;;;;;;;5.88;0.90;;;;;;;7.32;100.00;97942.44;5101888;28;20133;-42
2023/12/22 03:56:51;;;;;;;2.65;0.85;;;;;;;7.23;100.00;97948.50;5090649;28;20040;-41
2023/12/22 03:59:19;;;;;;;1.92;0.70;;;;;;;7.21;100.00;97950.44;5110046;28;20052;-41
2023/12/22 04:01:53;;;;;;;2.63;0.77;;;;;;;7.17;100.00;97981.69;5110835;28;20155;-41
2023/12/22 04:04:22;;;;;;;;;;;;;;;7.18;100.00;97970.09;5107213;28;20087;-41
2023/12/22 04:06:52;;;;;;;1.92;0.68;;;;;;;7.28;100.00;97959.56;5090692;28;20024;-43
2023/12/22 04:09:20;;;;;;;6.57;1.20;;;;;;;7.24;100.00;97974.06;5090710;28;20059;-42
2023/12/22 04:11:49;;;;;;;4.82;1.05;;;;;;;7.21;100.00;97987.56;5100204;28;20044;-41
2023/12/22 04:14:18;;;;;;;2.85;1.00;;;;;;;7.20;100.00;97985.88;5098314;28;20428;-41
2023/12/22 04:16:46;;;;;;;2.20;0.90;;;;;;;7.23;100.00;97990.91;5103550;28;20377;-42
2023/12/22 04:19:15;;;;;;;2.58;1.10;;;;;;;7.26;100.00;97996.00;5111219;28;20090;-42
2023/12/22 04:21:44;;;;;;;2.63;0.80;;;;;;;7.21;100.00;97998.16;5111276;28;20078;-41
2023/12/22 04:24:13;;;;;;;4.70;1.20;;;;;;;7.21;100.00;97995.50;5099337;28;20097;-42
2023/12/22 04:26:41;;;;;;;3.13;0.80;;;;;;;7.15;100.00;98009.28;5091052;28;20154;-42
2023/12/22 04:29:10;;;;;;;2.83;0.90;;;;;;;7.10;100.00;98033.50;5091068;28;20132;-41
2023/12/22 04:31:38;;;;;;;2.05;0.85;;;;;;;7.08;100.00;98018.69;5103658;28;20070;-41
2023/12/22 04:34:06;;;;;;;1.85;0.82;;;;;;;7.10;100.00;98043.28;5093242;28;20412;-41
2023/12/22 04:36:36;;;;;;;5.55;1.15;;;;;;;6.88;100.00;98055.59;5090374;28;20048;-41
2023/12/22 04:39:04;;;;;;;2.75;0.90;;;;;;;6.57;100.00;98040.47;5098842;28;20044;-42
2023/12/22 04:41:33;;;;;;;2.70;0.80;;;;;;;6.54;100.00;98025.63;5111212;28;20047;-42
2023/12/22 04:44:03;;;;;;;2.00;0.77;;;;;;;6.38;100.00;98046.34;5110987;28;20109;-41
2023/12/22 04:46:31;;;;;;;3.55;1.02;;;;;;;6.45;100.00;98014.91;5112050;28;20079;-43
2023/12/22 04:49:01;;;;;;;3.65;0.80;;;;;;;6.40;100.00;98017.09;5114726;28;20120;-42
2023/12/22 04:51:30;;;;;;;1.85;0.80;;;;;;;6.37;100.00;98017.31;5114656;28;20040;-42
2023/12/22 04:53:58;;;;;;;2.70;0.77;;;;;;;6.30;100.00;98016.97;5104669;28;20461;-41
2023/12/22 04:56:27;;;;;;;4.03;1.05;;;;;;;6.35;100.00;98030.69;5094493;28;20606;-42
2023/12/22 04:58:56;;;;;;;3.05;1.08;;;;;;;6.39;100.00;98031.31;5112474;28;20047;-41
2023/12/22 05:01:25;;;;;;;4.28;1.10;;;;;;;6.23;100.00;98053.66;5113975;28;20080;-42
2023/12/22 05:03:54;;;;;;;2.28;0.95;;;;;;;6.40;100.00;98033.00;5094056;28;20052;-41
2023/12/22 05:06:23;;;;;;;3.28;1.25;;;;;;;6.43;100.00;98040.69;5094330;28;20052;-43
2023/12/22 05:08:53;;;;;;;2.67;0.95;;;;;;;6.23;100.00;98043.09;5093996;28;20434;-42
2023/12/22 05:11:22;;;;;;;6.30;1.30;;;;;;;6.36;100.00;98037.66;5105561;28;20058;-43
2023/12/22 05:13:50;;;;;;;5.22;1.20;;;;;;;6.19;100.00;98046.94;5094044;28;20135;-42
2023/12/22 05:16:20;;;;;;;4.05;1.00;;;;;;;6.19;100.00;98054.03;5093718;28;20051;-44
2023/12/22 05:18:48;;;;;;;4.20;1.10;;;;;;;6.14;100.00;98051.72;5103773;28;20044;-42
2023/12/22 05:21:17;;;;;;;5.28;1.20;;;;;;;6.14;100.00;98053.53;5114326;28;20050;-43
2023/12/22 05:23:45;;;;;;;2.88;1.05;;;;;;;6.19;100.00;98057.53;5098992;27;20129;-43
2023/12/22 05:26:17;;;;;;;4.13;0.85;;;;;;;6.16;100.00;98057.75;5093812;28;20048;-42
2023/12/22 05:28:46;;;;;;;3.75;1.02;;;;;;;6.12;100.00;98061.59;5093840;28;20040;-41
2023/12/22 05:31:14;;;;;;;3.45;1.02;;;;;;;6.02;100.00;98068.56;5093890;28;20397;-42
2023/12/22 05:33:44;;;;;;;4.65;1.05;;;;;;;5.99;100.00;98071.44;5108269;28;20051;-41
2023/12/22 05:36:13;;;;;;;5.35;1.00;;;;;;;6.12;100.00;98074.84;5099920;28;20066;-42
2023/12/22 05:38:41;;;;;;;3.50;1.08;;;;;;;6.03;100.00;98091.41;5103861;28;20143;-43
2023/12/22 05:41:10;;;;;;;3.42;1.40;;;;;;;6.11;100.00;98091.69;5100521;27;20067;-43
2023/12/22 05:43:38;;;;;;;4.03;1.00;;;;;;;6.10;100.00;98094.44;5093944;28;20044;-43
2023/12/22 05:46:06;;;;;;;8.15;1.63;;;;;;;6.14;100.00;98085.31;5093998;28;20052;-42
2023/12/22 05:48:35;;;;;;;3.42;1.08;;;;;;;6.15;100.00;98087.81;5105103;28;20052;-45
2023/12/22 05:51:07;;;;;;;4.25;1.13;;;;;;;6.22;100.00;98086.41;5075475;28;20146;-43
2023/12/22 05:53:35;;;;;;;5.50;1.17;;;;;;;6.23;100.00;98082.78;5079398;28;20516;-42
2023/12/22 05:56:04;;;;;;;4.43;1.38;;;;;;;6.06;100.00;98074.44;5119772;28;20466;-43
2023/12/22 05:58:32;;;;;;;4.00;1.15;;;;;;;6.12;100.00;98089.88;5104217;28;20101;-41
2023/12/22 06:01:00;;;;;;;4.38;1.30;;;;;;;6.11;100.00;98075.78;5105773;28;20526;-43
2023/12/22 06:03:29;;;;;;;7.88;1.58;;;;;;;6.15;100.00;98087.81;5100923;28;20054;-42
2023/12/22 06:05:57;;;;;;;4.40;1.33;;;;;;;6.22;100.00;98083.75;5096885;28;20059;-44
2023/12/22 06:08:27;;;;;;;6.30;1.45;;;;;;;6.21;100.00;98103.25;5096199;28;20111;-42
2023/12/22 06:10:55;;;;;;;7.88;1.60;;;;;;;6.22;100.00;98104.94;5095991;28;20068;-42
2023/12/22 06:13:24;;;;;;;8.27;1.42;;;;;;;6.24;100.00;98110.09;5094769;28;20602;-42
2023/12/22 06:15:53;;;;;;;2.80;1.17;;;;;;;6.12;100.00;98133.06;5111044;28;20082;-41
2023/12/22 06:18:21;;;;;;;5.97;1.20;;;;;;;6.22;100.00;98125.28;5111482;28;20098;-43
2023/12/22 06:20:51;;;;;;;6.63;1.30;;;;;;;6.18;100.00;98123.81;5096129;28;20182;-43
2023/12/22 06:23:19;;;;;;;5.10;1.33;;;;;;;6.16;100.00;98137.16;5095587;28;20457;-42
2023/12/22 06:25:49;;;;;;;6.35;1.50;;;;;;;6.15;100.00;98140.75;5095737;28;20044;-45
2023/12/22 06:28:17;;;;;;;6.47;1.38;;;;;;;6.17;100.00;98133.53;5094740;28;20408;-42
2023/12/22 06:30:46;;;;;;;5.88;1.33;;;;;;;6.30;100.00;98134.31;5093994;28;20135;-43
2023/12/22 06:33:15;;;;;;;9.50;1.40;;;;;;;6.34;100.00;98152.63;5093522;28;20365;-43
2023/12/22 06:35:45;;;;;;;6.65;1.23;;;;;;;6.29;100.00;98148.53;5098523;28;20186;-43
2023/12/22 06:38:13;;;;;;;4.55;1.13;;;;;;;6.39;100.00;98163.72;5114101;28;20067;-43
2023/12/22 06:40:42;;;;;;;4.78;1.55;;;;;;;6.29;100.00;98168.88;5113637;28;20115;-42
2023/12/22 06:43:12;;;;;;;4.07;1.05;;;;;;;6.46;100.00;98159.59;5099438;28;20036;-41
2023/12/22 06:45:40;;;;;;;5.97;1.20;;;;;;;6.39;100.00;98164.56;5092231;28;20464;-42
2023/12/22 06:48:10;;;;;;;6.15;1.52;;;;;;;6.36;100.00;98163.94;5092327;28;20404;-43
2023/12/22 06:50:39;;;;;;;5.85;1.23;;;;;;;6.42;100.00;98158.16;5092590;28;20094;-43
2023/12/22 06:53:08;;;;;;;3.97;1.27;;;;;;;6.36;100.00;98170.06;5092531;28;20056;-41
2023/12/22 06:55:49;;;;;;;4.85;1.20;;;;;;;6.47;100.00;98174.56;5103062;28;20092;-42
2023/12/22 06:58:21;;;;;;;9.05;1.33;;;;;;;6.47;100.00;98161.31;5108791;28;20059;-41
2023/12/22 07:00:50;;;;;;;8.55;1.42;;;;;;;6.62;100.00;98161.94;5102781;28;20077;-40
2023/12/22 07:03:19;;;;;;;7.15;1.38;;;;;;;6.45;100.00;98179.13;5110519;27;20048;-41
2023/12/22 07:05:51;;;;;;;6.82;1.35;;;;;;;6.51;100.00;98184.81;5112823;28;20052;-42
2023/12/22 07:08:19;;;;;;;3.90;1.08;;;;;;;6.61;100.00;98187.59;5112588;28;20055;-42
2023/12/22 07:10:47;;;;;;;4.38;1.30;;;;;;;6.57;100.00;98188.78;5112010;28;20096;-41
2023/12/22 07:13:16;;;;;;;4.57;1.20;;;;;;;6.70;100.00;98181.59;5104574;28;20201;-41
2023/12/22 07:15:47;;;;;;;4.32;1.42;;;;;;;6.57;100.00;98194.94;5100312;28;20047;-43
2023/12/22 07:18:15;;;;;;;6.55;1.80;;;;;;;6.67;100.00;98200.38;5096622;28;20061;-40
2023/12/22 07:20:43;;;;;;;5.47;1.70;;;;;;;6.76;100.00;98199.66;5095381;28;20096;-41
2023/12/22 07:23:12;;;;;;;7.18;1.63;;;;;;;6.76;100.00;98204.97;5097978;28;20127;-41
2023/12/22 07:25:41;;;;;;;7.18;1.38;;;;;;;6.85;100.00;98201.63;5096597;28;20461;-41
2023/12/22 07:28:09;;;;;;;9.48;1.63;;;;;;;6.85;100.00;98198.97;5095841;28;20051;-42
2023/12/22 07:30:37;;;;;;;7.10;1.85;;;;;;;6.89;100.00;98205.69;5107966;28;20097;-40
2023/12/22 07:33:07;;;;;;;8.73;1.85;;;;;;;6.92;100.00;98194.00;5100708;28;20130;-41
2023/12/22 07:35:36;;;;;;;8.25;1.40;;;;;;;6.82;100.00;98199.19;5106354;28;20055;-39
2023/12/22 07:38:04;;;;;;;5.30;1.27;;;;;;;6.83;100.00;98200.88;5111663;28;20434;-42
2023/12/22 07:40:32;;;;;;;7.22;1.40;;;;;;;6.75;100.00;98189.16;5090900;28;20528;-41
2023/12/22 07:43:01;;;;;;;6.88;1.58;;;;;;;6.85;100.00;98208.69;5105469;28;20086;-43
2023/12/22 07:45:29;;;;;;;4.50;1.50;;;;;;;6.80;100.00;98200.25;5095680;28;20093;-41
2023/12/22 07:47:57;;;;;;;6.50;1.60;;;;;;;6.85;100.00;98211.34;5095095;28;20088;-40
2023/12/22 07:50:29;;;;;;;8.68;1.55;;;;;;;7.13;100.00;98234.75;5095742;28;20051;-40
2023/12/22 07:52:58;;;;;;;6.50;1.33;;;;;;;7.05;100.00;98215.13;5095147;28;20040;-41
2023/12/22 07:55:29;;;;;;;5.90;1.35;;;;;;;7.09;100.00;98216.56;5100376;28;20047;-40
2023/12/22 07:57:58;;;;;;;5.32;1.40;;;;;;;7.25;100.00;98221.50;5098556;28;20579;-41
2023/12/22 08:00:27;;;;;;;7.80;1.60;;;;;;;7.36;100.00;98229.47;5094784;28;20078;-42
2023/12/22 08:02:56;;;;;;;6.13;1.60;;;;;;;7.38;100.00;98217.75;5095951;28;20048;-40
2023/12/22 08:05:24;;;;;;;6.63;1.40;;;;;;;7.32;100.00;98223.53;5096926;28;20454;-41
2023/12/22 08:07:54;;;;;;;4.88;1.45;;;;;;;7.41;100.00;98227.28;5097429;28;20889;-42
2023/12/22 08:10:22;;;;;;;6.93;1.40;;;;;;;7.41;100.00;98222.81;5094606;28;20157;-40
2023/12/22 08:12:50;;;;;;;6.80;1.50;;;;;;;7.47;100.00;98227.63;5096352;28;20058;-41
2023/12/22 08:15:19;;;;;;;13.70;2.30;;;;;;;7.47;100.00;98237.41;5097386;28;20101;-42
2023/12/22 08:18:00;;;;;;;4.72;1.50;;;;;;;7.61;100.00;98223.03;5095037;28;20044;-40
2023/12/22 08:20:28;;;;;;;9.38;1.67;;;;;;;7.70;100.00;98217.81;5095961;28;20051;-41
2023/12/22 08:23:05;;;;;;;4.32;1.30;;;;;;;7.78;100.00;98234.94;5099728;28;20036;-42
2023/12/22 08:25:41;;;;;;;5.90;1.42;;;;;;;7.80;100.00;98233.00;5102745;28;20063;-41
2023/12/22 08:28:12;;;;;;;4.97;1.50;;;;;;;7.55;100.00;98245.59;5099420;28;20409;-42
2023/12/22 08:30:40;;;;;;;3.97;1.20;;;;;;;7.85;100.00;98252.91;5098227;28;20105;-41
2023/12/22 08:33:08;;;;;;;7.15;1.55;;;;;;;7.93;100.00;98239.03;5100029;28;20064;-40
2023/12/22 08:35:37;;;;;;;6.32;1.80;;;;;;;8.09;100.00;98249.22;5101675;28;20059;-42
2023/12/22 08:38:07;;;;;;;6.25;1.38;;;;;;;8.08;100.00;98252.84;5101044;28;20048;-41
2023/12/22 08:40:36;;;;;;;7.30;1.88;;;;;;;8.11;100.00;98242.84;5102130;28;20142;-42
2023/12/22 08:43:06;;;;;;;5.47;1.80;;;;;;;7.99;100.00;98276.53;5101972;28;20072;-40
2023/12/22 08:45:34;;;;;;;6.25;1.50;;;;;;;8.00;100.00;98253.47;5100886;28;20044;-40
2023/12/22 08:48:07;;;;;;;6.75;1.38;;;;;;;7.99;100.00;98260.59;5110006;28;20187;-40
2023/12/22 08:50:36;;;;;;;6.90;1.88;;;;;;;7.82;100.00;98263.78;5096519;28;20051;-41
2023/12/22 08:53:05;;;;;;;5.38;1.20;;;;;;;7.79;100.00;98274.63;5108248;28;20047;-42
2023/12/22 08:55:33;;;;;;;7.10;1.48;;;;;;;7.67;100.00;98254.41;5114362;28;20108;-41
2023/12/22 08:58:02;;;;;;;9.60;1.90;;;;;;;7.75;100.00;98265.25;5114476;28;20557;-41
2023/12/22 09:00:30;;;;;;;8.60;1.55;;;;;;;7.87;100.00;98271.38;5114614;28;20075;-41
2023/12/22 09:02:59;;;;;;;6.93;1.45;;;;;;;7.86;100.00;98269.69;5106060;28;20126;-42
2023/12/22 09:05:27;;;;;;;6.47;1.27;;;;;;;7.93;100.00;98269.06;5093809;28;20044;-41
2023/12/22 09:07:56;;;;;;;6.65;1.48;;;;;;;7.62;100.00;98272.47;5093663;28;20408;-41
2023/12/22 09:10:26;;;;;;;8.82;1.42;;;;;;;7.76;100.00;98290.81;5093694;28;20054;-41
2023/12/22 09:12:54;;;;;;;10.68;1.73;;;;;;;7.79;100.00;98274.63;5093466;28;20499;-42
2023/12/22 09:15:22;;;;;;;8.10;1.70;;;;;;;7.70;100.00;98275.38;5093957;28;20074;-41
2023/12/22 09:17:51;;;;;;;7.05;1.50;;;;;;;7.81;100.00;98270.03;5110807;28;20579;-43
2023/12/22 09:20:20;;;;;;;5.68;1.48;;;;;;;7.82;100.00;98279.72;5114094;28;20556;-43
2023/12/22 09:22:49;;;;;;;11.70;1.63;;;;;;;7.80;100.00;98268.34;5102351;28;20046;-40
2023/12/22 09:25:17;;;;;;;4.97;1.52;;;;;;;7.84;100.00;98271.63;5093336;28;20094;-46
2023/12/22 09:27:46;;;;;;;7.97;1.52;;;;;;;7.95;100.00;98259.16;5100155;28;20051;-41
2023/12/22 09:30:15;;;;;;;4.28;1.38;;;;;;;7.85;100.00;98255.56;5113963;28;20051;-43
2023/12/22 09:32:43;;;;;;;6.65;1.58;;;;;;;8.00;100.00;98262.28;5101016;28;20062;-40
2023/12/22 09:35:12;;;;;;;8.60;1.55;;;;;;;8.06;100.00;98249.50;5100546;28;20520;-41
2023/12/22 09:37:41;;;;;;;5.00;1.60;;;;;;;8.12;100.00;98254.31;5098610;28;20064;-42
2023/12/22 09:40:11;;;;;;;8.18;1.67;;;;;;;8.18;100.00;98243.16;5100154;28;20054;-41
2023/12/22 09:42:41;;;;;;;9.80;1.60;;;;;;;8.15;100.00;98244.28;5100421;28;20127;-42
2023/12/22 09:45:13;;;;;;;4.55;1.30;;;;;;;8.10;100.00;98250.91;5100103;28;20128;-41
2023/12/22 09:47:43;;;;;;;6.78;1.30;;;;;;;8.17;100.00;98247.63;5099640;28;20059;-42
2023/12/22 09:50:13;;;;;;;5.55;1.50;;;;;;;8.08;100.00;98259.00;5100830;28;20054;-41
2023/12/22 09:52:44;;;;;;;2.17;1.00;;;;;;;8.12;100.00;98275.56;5100118;28;20055;-41
2023/12/22 09:55:14;;;;;;;5.07;1.42;;;;;;;8.03;100.00;98271.84;5100338;28;20044;-41
2023/12/22 09:57:43;;;;;;;3.75;1.23;;;;;;;7.98;100.00;98274.84;5098485;28;20058;-42
2023/12/22 10:00:15;;;;;;;4.75;1.17;;;;;;;8.09;100.00;98271.31;5099779;28;20040;-42
2023/12/22 10:02:45;;;;;;;4.90;1.10;;;;;;;8.09;100.00;98258.03;5098076;28;20086;-44
2023/12/22 10:05:14;;;;;;;4.65;1.20;;;;;;;8.02;100.00;98265.69;5100814;28;20052;-44
2023/12/22 10:07:46;;;;;;;3.78;1.20;;;;;;;8.09;100.00;98273.97;5095745;28;20477;-41
2023/12/22 10:10:17;;;;;;;5.93;1.30;;;;;;;8.10;100.00;98256.22;5106783;28;20412;-41
2023/12/22 10:12:49;;;;;;;4.38;1.20;;;;;;;7.98;100.00;98248.28;5113134;28;20066;-42
2023/12/22 10:15:23;;;;;;;1.92;1.00;;;;;;;8.10;100.00;98257.06;5112558;28;20130;-41
2023/12/22 10:17:53;;;;;;;4.05;1.10;;;;;;;8.09;100.00;98265.16;5112087;28;20099;-42
2023/12/22 10:20:21;;;;;;;2.70;0.70;;;;;;;8.20;100.00;98263.34;5111964;28;20499;-42
2023/12/22 10:22:50;;;;;;;3.42;1.10;;;;;;;8.20;100.00;98260.69;5106966;28;20530;-48
2023/12/22 10:25:21;;;;;;;4.10;1.25;;;;;;;8.42;100.00;98272.22;5101672;28;20048;-42
2023/12/22 10:27:52;;;;;;;5.20;1.25;;;;;;;8.73;100.00;98238.63;5099330;28;20565;-42
2023/12/22 10:30:23;;;;;;;2.63;1.05;;;;;;;8.42;100.00;98237.69;5095752;28;20032;-43
2023/12/22 10:32:52;;;;;;;4.03;1.20;;;;;;;8.52;100.00;98234.13;5104663;28;20040;-42
2023/12/22 10:35:21;;;;;;;6.15;1.00;;;;;;;8.55;100.00;98225.06;5096769;28;20076;-44
2023/12/22 10:37:52;;;;;;;5.80;1.27;;;;;;;8.41;100.00;98228.88;5097452;28;20055;-43
2023/12/22 10:40:21;;;;;;;6.28;1.10;;;;;;;8.28;100.00;98233.47;5095461;28;20048;-43
2023/12/22 10:42:49;;;;;;;17.58;6.82;;;;;;;8.07;100.00;98195.41;5101355;28;20048;-42
2023/12/22 10:45:19;;;;;;;6.82;2.53;;;;;;;7.83;100.00;98196.47;5099090;28;20044;-41
2023/12/22 10:47:50;;;;;;;4.63;1.40;;;;;;;7.90;100.00;98202.94;5102902;28;20385;-43
2023/12/22 10:50:20;;;;;;;4.40;1.08;;;;;;;7.70;100.00;98196.59;5098838;28;20046;-42
2023/12/22 10:52:52;;;;;;;3.20;0.88;;;;;;;7.69;100.00;98197.56;5098139;28;20036;-41
2023/12/22 10:55:20;;;;;;;4.80;1.10;;;;;;;7.71;100.00;98192.97;5098967;28;20047;-43
2023/12/22 10:57:49;;;;;;;2.00;0.90;;;;;;;7.75;100.00;98188.28;5099096;28;20138;-41
2023/12/22 11:00:20;;;;;;;3.08;0.98;;;;;;;7.82;100.00;98197.44;5098141;28;20043;-42
2023/12/22 11:03:00;;;;;;;3.58;1.30;;;;;;;7.92;100.00;98206.34;5093641;28;20122;-42
2023/12/22 11:05:39;;;;;;;3.08;0.82;;;;;;;7.88;100.00;98204.88;5098914;28;20040;-42
2023/12/22 11:08:13;;;;;;;7.03;1.30;;;;;;;7.89;100.00;98201.25;5096543;28;20056;-46
2023/12/22 11:11:17;;;;;;;2.25;0.73;;;;;;;7.85;100.00;98213.09;5096740;28;20418;-53
2023/12/22 11:14:12;;;;;;;3.97;1.10;;;;;;;7.89;100.00;98214.53;5098548;28;20050;-44
2023/12/22 11:16:55;;;;;;;3.50;1.20;;;;;;;7.90;100.00;98210.91;5098039;28;20100;-41
2023/12/22 11:20:02;;;;;;;3.45;0.88;;;;;;;7.77;100.00;98188.16;5099332;28;20088;-43
2023/12/22 11:22:42;;;;;;;4.90;1.20;;;;;;;7.80;100.00;98209.13;5095298;28;20040;-49
2023/12/22 11:25:30;;;;;;;3.90;0.90;;;;;;;7.96;100.00;98180.38;5095372;28;20100;-42
2023/12/22 11:28:19;;;;;;;3.03;0.82;;;;;;;7.89;100.00;98180.03;5097948;28;20051;-41
2023/12/22 11:30:50;;;;;;;3.80;1.05;;;;;;;7.93;100.00;98173.50;5095003;28;20337;-42
2023/12/22 11:33:23;;;;;;;4.22;0.90;;;;;;;7.94;100.00;98167.22;5095209;28;20044;-42
2023/12/22 11:35:56;;;;;;;3.53;1.00;;;;;;;7.99;100.00;98193.38;5095415;28;20096;-42
2023/12/22 11:38:25;;;;;;;;;;;;;;;8.05;100.00;98184.94;5094667;28;20044;-42
2023/12/22 11:40:54;;;;;;;3.45;1.05;;;;;;;8.04;100.00;98177.94;5090332;28;20015;-41
2023/12/22 11:43:23;;;;;;;4.03;1.15;;;;;;;7.99;100.00;98190.72;5113144;28;20071;-44
2023/12/22 11:45:51;;;;;;;4.20;1.30;;;;;;;7.95;100.00;98190.16;5111831;28;20503;-43